Elliott, South Carolina
Current Conditions -  °F | °C
As of 5:35 PM on Monday 20 Oct 2014 (Local Time) from KSMS Reporting Station
Scattered Clouds Scattered Clouds  
Wind Chill: 73°   Ceiling: Unl
Heat Index: 73°   Visibility: 10mi
Dew Point: 55°   Wind: 7mph
Humidity: 53%   Direction: 210°SSW
Pressure: 29.99"   Gusts: NA
Location:  34.11°N, 80.16°W
Report Text: KSMS 202135Z AUTO 21006KT 10SM FEW050 SCT060 23/13 A2999 RMK AO2
Loading
Personal Weather Stations






























Interactive Weather Map
Tropical Storm Tracking
New forecast layout! Learn more

10-Day Weather Forecast

Advertisements
Track Severe Weather on mobile